Portada
METAR-TAF:

METAR-TAF

Aeroports :

Angers, França

latitud: 47-33-37N, longitud: 000-18-44W, altitud: 59 m

Observació

L'informe es va fer fa 25 minuts, a les 18:30 UTC
Vent 2 kt amb direcció variable
Temperatura 28°C
Humitat 28%
Pressió 1013 hPa
Visibilitat 10 km o més
sense núvols per sota de 1500 mi sense presència de cumulonimbus.

METAR: LFJR 021830Z AUTO VRB02KT CAVOK 28/08 Q1013

Hora: 20:55 (18:55 UTC)


TAF: manca

Observacions i pronòstics meteorològics de més de 4000 aeroports (METAR i TAF).

Les estacions disponibles són els punts grocs i vermells al mapa.

Posi el ratolí al punt desitjat per veure el nom de l'estació.

Feu clic per veure les observacions i els pronòstics meteorològics.

Per canviar el mapa: feu clic els botons verds amb una creu de color negre per apropar; al botó verd amb un guió per allunyar la imatge; o en les fletxes verdes per a mapes adjacents.


METAR-TAF: